Terminal Aerodrome Forecast
Issued by NWS

Current Version | Previous Version | Graphics & Text | Print | Product List | Glossary On
Versions: 1 2 3 4 5 6 7 8 9 10 11 12 13 14 15 16 17 18 19 20 21 22 23 24 25 26 27
000
FTUS41 KRLX 192320
TAFCKB
TAF
KCKB 192320Z 2000/2024 00000KT P6SM BKN250
     FM200800 VRB03KT P6SM OVC070
     FM201000 VRB03KT 5SM -RA SCT025 OVC050
     FM201500 19007KT P6SM OVC030
     FM202000 23007KT P6SM BKN025=

USA.gov is the U.S. government's official web portal to all federal, state and local government web resources and services.